Карточка аэропорта UMKK

Внимание!
Информация на этой странице в стадии наполнения.
Если вы не увидели какой-то информации, или заметили неточность - пожалуйста сообщите нам!
Спасибо!
Команда RU-STAFF
Название аэропортаХраброво
Название аэропорта (англ.)Khrabrovo
Превышение43 ft. (13.1 m.)
Координаты54°53.4', 20°35.55'
Высота перехода4000ft
Эшелон переходаFL50 (QNH>=1013hPa); FL60 (QNH<1013hPa); FL50 (QNH<977hPa);
Коды ответчика6620-6637
Зона ОрВДКалининград РПИ (UMKK)
Данные METARUMKK 100900Z 00000MPS 9999 BKN018 M05/M05 Q1011 R24/690195 TEMPO 0400 FZFG BKN002 RMK QFE757/1009
Проноз погоды (TAF)UMKK 100756Z 1009/1109 VRB01MPS 0700 PRFG BKN002 TEMPO 1009/1012 0200 FZFG VV001 BECMG 1012/1015 6000 NSW TEMPO 1015/1106 0200 FZFG VV001 BECMG 1102/1104 11003G08MPS BECMG 1106/1108 05005G11MPS FEW005 BKN011
NOTAMshow/hide NOTAM
AWOS   TABLE

Информация о ВПП

ВПП Длина ВПП (м.) Покрытие Курс ВПП Частота ILS
063350Асфальтобетон60110.3
243350Асфальтобетон240109.5

Диспетчерские позиции

Позывной Наименование органа УВД Частота
UMKK_TWRКалининград-Вышка127.2
UMKK_APPКалининград-Подход126.0



Спутниковое изображение